Time,TemperatureF,DewpointF,PressureIn,WindDirection,WindDirectionDegrees,WindSpeedMPH,WindSpeedGustMPH,Humidity,HourlyPrecipIn,Conditions,Clouds,dailyrainin,SoftwareType,DateUTC
2013-04-20 00:04:00,42.6,33.0,30.12,NW,314,1.0,1.0,69,0.00,,,0.00,weatherlink.com 1.10,2013-04-20 04:04:00,
2013-04-20 00:19:00,42.1,31.0,30.12,NNE,15,0.0,3.0,66,0.00,,,0.00,weatherlink.com 1.10,2013-04-20 04:19:00,
2013-04-20 00:34:00,42.0,32.0,30.12,NE,50,0.0,2.0,68,0.00,,,0.00,weatherlink.com 1.10,2013-04-20 04:34:00,
2013-04-20 00:49:00,41.0,34.0,30.13,East,86,0.0,1.0,76,0.00,,,0.00,weatherlink.com 1.10,2013-04-20 04:49:00,
2013-04-20 01:04:00,40.2,32.0,30.13,NNW,335,0.0,3.0,73,0.00,,,0.00,weatherlink.com 1.10,2013-04-20 05:04:00,
2013-04-20 01:19:00,40.1,33.0,30.13,North,8,0.0,1.0,76,0.00,,,0.00,weatherlink.com 1.10,2013-04-20 05:19:00,
2013-04-20 01:34:00,39.0,34.0,30.14,ESE,114,0.0,1.0,82,0.00,,,0.00,weatherlink.com 1.10,2013-04-20 05:34:00,
2013-04-20 02:06:00,37.5,33.0,30.14,ESE,103,0.0,0.0,85,0.00,,,0.00,weatherlink.com 1.10,2013-04-20 06:06:00,
2013-04-20 02:20:00,36.8,33.0,30.14,ESE,103,0.0,0.0,87,0.00,,,0.00,weatherlink.com 1.10,2013-04-20 06:20:00,
2013-04-20 02:35:00,36.4,33.0,30.14,East,82,0.0,1.0,88,0.00,,,0.00,weatherlink.com 1.10,2013-04-20 06:35:00,
2013-04-20 02:50:00,36.5,34.0,30.14,East,82,0.0,1.0,89,0.00,,,0.00,weatherlink.com 1.10,2013-04-20 06:50:00,
2013-04-20 03:05:00,36.5,33.0,30.14,NW,319,0.0,0.0,88,0.00,,,0.00,weatherlink.com 1.10,2013-04-20 07:05:00,
2013-04-20 03:20:00,35.8,33.0,30.14,NW,326,0.0,0.0,89,0.00,,,0.00,weatherlink.com 1.10,2013-04-20 07:20:00,
2013-04-20 03:35:00,35.2,33.0,30.14,North,354,0.0,1.0,90,0.00,,,0.00,weatherlink.com 1.10,2013-04-20 07:35:00,
2013-04-20 03:50:00,34.8,33.0,30.15,NNW,346,0.0,1.0,92,0.00,,,0.00,weatherlink.com 1.10,2013-04-20 07:50:00,
2013-04-20 04:05:00,34.7,33.0,30.15,NNW,347,0.0,1.0,92,0.00,,,0.00,weatherlink.com 1.10,2013-04-20 08:05:00,
2013-04-20 04:20:00,34.5,33.0,30.15,NNE,13,0.0,1.0,93,0.00,,,0.00,weatherlink.com 1.10,2013-04-20 08:20:00,
2013-04-20 04:35:00,34.4,33.0,30.15,NNE,13,0.0,1.0,93,0.00,,,0.00,weatherlink.com 1.10,2013-04-20 08:35:00,
2013-04-20 04:50:00,34.2,32.0,30.16,NNE,14,0.0,1.0,93,0.00,,,0.00,weatherlink.com 1.10,2013-04-20 08:50:00,
2013-04-20 05:05:00,33.9,32.0,30.16,NNE,27,0.0,1.0,93,0.00,,,0.00,weatherlink.com 1.10,2013-04-20 09:05:00,
2013-04-20 05:20:00,33.8,32.0,30.16,NNE,27,0.0,0.0,93,0.00,,,0.00,weatherlink.com 1.10,2013-04-20 09:20:00,
2013-04-20 05:35:00,33.5,32.0,30.17,NNE,27,0.0,1.0,93,0.00,,,0.00,weatherlink.com 1.10,2013-04-20 09:35:00,
2013-04-20 05:50:00,33.4,32.0,30.17,NNE,27,0.0,0.0,93,0.00,,,0.00,weatherlink.com 1.10,2013-04-20 09:50:00,
2013-04-20 06:05:00,33.4,32.0,30.17,NNE,27,0.0,0.0,93,0.00,,,0.00,weatherlink.com 1.10,2013-04-20 10:05:00,
2013-04-20 06:20:00,33.2,31.0,30.17,NNE,27,0.0,0.0,93,0.00,,,0.00,weatherlink.com 1.10,2013-04-20 10:20:00,
2013-04-20 06:35:00,32.7,31.0,30.18,NNE,27,0.0,0.0,93,0.00,,,0.00,weatherlink.com 1.10,2013-04-20 10:35:00,
2013-04-20 06:50:00,32.2,31.0,30.18,NNE,27,0.0,0.0,94,0.00,,,0.00,weatherlink.com 1.10,2013-04-20 10:50:00,
2013-04-20 07:05:00,32.2,31.0,30.19,NNE,27,0.0,0.0,95,0.00,,,0.00,weatherlink.com 1.10,2013-04-20 11:05:00,
2013-04-20 07:20:00,32.1,31.0,30.19,NNE,27,0.0,0.0,95,0.00,,,0.00,weatherlink.com 1.10,2013-04-20 11:20:00,
2013-04-20 07:35:00,32.4,31.0,30.20,NNE,27,0.0,0.0,96,0.00,,,0.00,weatherlink.com 1.10,2013-04-20 11:35:00,
2013-04-20 07:50:00,33.2,32.0,30.21,NNE,27,0.0,0.0,96,0.00,,,0.00,weatherlink.com 1.10,2013-04-20 11:50:00,
2013-04-20 08:05:00,34.1,33.0,30.21,NNE,26,0.0,1.0,95,0.00,,,0.00,weatherlink.com 1.10,2013-04-20 12:05:00,
2013-04-20 08:20:00,35.3,34.0,30.22,NNE,28,0.0,0.0,95,0.00,,,0.00,weatherlink.com 1.10,2013-04-20 12:20:00,
2013-04-20 08:35:00,36.3,35.0,30.23,NE,41,0.0,0.0,93,0.00,,,0.00,weatherlink.com 1.10,2013-04-20 12:35:00,
2013-04-20 08:50:00,38.5,34.0,30.23,NE,41,0.0,0.0,85,0.00,,,0.00,weatherlink.com 1.10,2013-04-20 12:50:00,
2013-04-20 09:05:00,40.9,34.0,30.24,East,82,0.0,1.0,77,0.00,,,0.00,weatherlink.com 1.10,2013-04-20 13:05:00,
2013-04-20 09:20:00,42.2,33.0,30.24,East,88,0.0,0.0,71,0.00,,,0.00,weatherlink.com 1.10,2013-04-20 13:20:00,
2013-04-20 09:36:00,44.6,34.0,30.25,ESE,120,0.0,1.0,67,0.00,,,0.00,weatherlink.com 1.10,2013-04-20 13:36:00,
2013-04-20 09:51:00,47.3,35.0,30.25,SE,130,0.0,1.0,63,0.00,,,0.00,weatherlink.com 1.10,2013-04-20 13:51:00,
2013-04-20 10:06:00,49.6,36.0,30.25,SSW,209,0.0,2.0,59,0.00,,,0.00,weatherlink.com 1.10,2013-04-20 14:06:00,
2013-04-20 10:21:00,51.4,35.0,30.25,East,89,2.0,3.0,53,0.00,,,0.00,weatherlink.com 1.10,2013-04-20 14:21:00,
2013-04-20 10:36:00,52.3,35.0,30.25,North,357,1.0,2.0,53,0.00,,,0.00,weatherlink.com 1.10,2013-04-20 14:36:00,
2013-04-20 10:51:00,53.6,36.0,30.25,SSW,198,0.0,2.0,51,0.00,,,0.00,weatherlink.com 1.10,2013-04-20 14:51:00,
2013-04-20 11:06:00,53.4,33.0,30.26,North,357,1.0,3.0,47,0.00,,,0.00,weatherlink.com 1.10,2013-04-20 15:06:00,
2013-04-20 11:21:00,54.0,34.0,30.26,SE,128,0.0,4.0,47,0.00,,,0.00,weatherlink.com 1.10,2013-04-20 15:21:00,
2013-04-20 11:36:00,55.0,35.0,30.26,SE,146,0.0,3.0,48,0.00,,,0.00,weatherlink.com 1.10,2013-04-20 15:36:00,
2013-04-20 11:51:00,56.5,33.0,30.26,ENE,68,1.0,3.0,41,0.00,,,0.00,weatherlink.com 1.10,2013-04-20 15:51:00,
2013-04-20 12:06:00,57.6,31.0,30.26,NE,36,2.0,7.0,36,0.00,,,0.00,weatherlink.com 1.10,2013-04-20 16:06:00,
2013-04-20 12:21:00,59.2,31.0,30.26,NW,304,0.0,4.0,35,0.00,,,0.00,weatherlink.com 1.10,2013-04-20 16:21:00,
2013-04-20 12:36:00,58.9,32.0,30.25,NNE,17,1.0,4.0,37,0.00,,,0.00,weatherlink.com 1.10,2013-04-20 16:36:00,
2013-04-20 12:51:00,60.1,31.0,30.25,WNW,297,0.0,4.0,33,0.00,,,0.00,weatherlink.com 1.10,2013-04-20 16:51:00,
2013-04-20 13:07:00,60.3,32.0,30.24,North,1,0.0,6.0,34,0.00,,,0.00,weatherlink.com 1.10,2013-04-20 17:07:00,
2013-04-20 13:21:00,61.6,33.0,30.23,NW,307,0.0,3.0,34,0.00,,,0.00,weatherlink.com 1.10,2013-04-20 17:21:00,
2013-04-20 13:36:00,61.2,31.0,30.23,NNE,15,0.0,10.0,32,0.00,,,0.00,weatherlink.com 1.10,2013-04-20 17:36:00,
2013-04-20 13:51:00,61.1,28.0,30.22,West,280,3.0,8.0,28,0.00,,,0.00,weatherlink.com 1.10,2013-04-20 17:51:00,
2013-04-20 14:06:00,60.8,27.0,30.23,NE,43,1.0,7.0,28,0.00,,,0.00,weatherlink.com 1.10,2013-04-20 18:06:00,
2013-04-20 14:21:00,60.9,28.0,30.23,ENE,67,2.0,4.0,29,0.00,,,0.00,weatherlink.com 1.10,2013-04-20 18:21:00,
2013-04-20 14:36:00,60.9,29.0,30.23,SE,131,4.0,10.0,30,0.00,,,0.00,weatherlink.com 1.10,2013-04-20 18:36:00,
2013-04-20 14:52:00,62.8,32.0,30.22,East,92,0.0,6.0,32,0.00,,,0.00,weatherlink.com 1.10,2013-04-20 18:52:00,
2013-04-20 15:06:00,63.2,30.0,30.22,NNE,20,0.0,4.0,29,0.00,,,0.00,weatherlink.com 1.10,2013-04-20 19:06:00,
2013-04-20 15:21:00,63.0,30.0,30.22,NNW,333,1.0,7.0,29,0.00,,,0.00,weatherlink.com 1.10,2013-04-20 19:21:00,
2013-04-20 15:36:00,63.2,31.0,30.21,NE,47,1.0,6.0,30,0.00,,,0.00,weatherlink.com 1.10,2013-04-20 19:36:00,
2013-04-20 15:52:00,63.8,29.0,30.21,ESE,102,1.0,4.0,27,0.00,,,0.00,weatherlink.com 1.10,2013-04-20 19:52:00,
2013-04-20 16:07:00,64.2,29.0,30.21,West,268,1.0,6.0,27,0.00,,,0.00,weatherlink.com 1.10,2013-04-20 20:07:00,
2013-04-20 16:22:00,63.9,27.0,30.21,NW,309,1.0,9.0,25,0.00,,,0.00,weatherlink.com 1.10,2013-04-20 20:22:00,
2013-04-20 16:37:00,64.1,26.0,30.21,East,80,1.0,8.0,24,0.00,,,0.00,weatherlink.com 1.10,2013-04-20 20:37:00,
2013-04-20 16:53:00,63.1,27.0,30.21,SW,214,2.0,4.0,26,0.00,,,0.00,weatherlink.com 1.10,2013-04-20 20:53:00,
2013-04-20 17:07:00,63.9,27.0,30.21,SSE,161,2.0,5.0,25,0.00,,,0.00,weatherlink.com 1.10,2013-04-20 21:07:00,
2013-04-20 17:22:00,63.3,27.0,30.20,North,4,2.0,10.0,25,0.00,,,0.00,weatherlink.com 1.10,2013-04-20 21:22:00,
2013-04-20 17:37:00,62.6,27.0,30.21,West,278,2.0,4.0,26,0.00,,,0.00,weatherlink.com 1.10,2013-04-20 21:37:00,
2013-04-20 17:52:00,61.7,27.0,30.21,NNE,26,2.0,5.0,27,0.00,,,0.00,weatherlink.com 1.10,2013-04-20 21:52:00,
2013-04-20 18:07:00,61.1,28.0,30.21,ESE,109,2.0,3.0,29,0.00,,,0.00,weatherlink.com 1.10,2013-04-20 22:07:00,
2013-04-20 18:22:00,60.6,27.0,30.21,NNW,341,2.0,3.0,28,0.00,,,0.00,weatherlink.com 1.10,2013-04-20 22:22:00,
2013-04-20 18:37:00,60.5,28.0,30.21,NE,34,1.0,7.0,29,0.00,,,0.00,weatherlink.com 1.10,2013-04-20 22:37:00,
2013-04-20 18:52:00,60.2,28.0,30.21,NW,308,0.0,7.0,30,0.00,,,0.00,weatherlink.com 1.10,2013-04-20 22:52:00,
2013-04-20 19:07:00,59.5,30.0,30.21,NNE,20,2.0,5.0,33,0.00,,,0.00,weatherlink.com 1.10,2013-04-20 23:07:00,
2013-04-20 19:22:00,59.1,30.0,30.21,NE,44,2.0,4.0,33,0.00,,,0.00,weatherlink.com 1.10,2013-04-20 23:22:00,
2013-04-20 19:37:00,58.5,30.0,30.21,WNW,292,0.0,3.0,34,0.00,,,0.00,weatherlink.com 1.10,2013-04-20 23:37:00,
2013-04-20 19:52:00,57.6,31.0,30.21,NW,323,0.0,2.0,36,0.00,,,0.00,weatherlink.com 1.10,2013-04-20 23:52:00,
2013-04-20 20:07:00,56.2,32.0,30.22,NW,323,0.0,0.0,40,0.00,,,0.00,weatherlink.com 1.10,2013-04-21 00:07:00,
2013-04-20 20:22:00,54.6,35.0,30.22,NW,323,0.0,0.0,47,0.00,,,0.00,weatherlink.com 1.10,2013-04-21 00:22:00,
2013-04-20 20:37:00,52.9,35.0,30.23,NW,323,0.0,0.0,51,0.00,,,0.00,weatherlink.com 1.10,2013-04-21 00:37:00,
2013-04-20 20:52:00,51.6,36.0,30.23,NW,323,0.0,0.0,56,0.00,,,0.00,weatherlink.com 1.10,2013-04-21 00:52:00,
2013-04-20 21:07:00,50.3,36.0,30.25,NW,323,0.0,0.0,59,0.00,,,0.00,weatherlink.com 1.10,2013-04-21 01:07:00,
2013-04-20 21:22:00,49.3,36.0,30.26,NW,323,0.0,0.0,60,0.00,,,0.00,weatherlink.com 1.10,2013-04-21 01:22:00,
2013-04-20 21:39:00,48.6,36.0,30.26,NW,323,0.0,0.0,63,0.00,,,0.00,weatherlink.com 1.10,2013-04-21 01:39:00,
2013-04-20 21:52:00,48.2,37.0,30.27,NW,323,0.0,0.0,65,0.00,,,0.00,weatherlink.com 1.10,2013-04-21 01:52:00,
2013-04-20 22:07:00,47.9,36.0,30.27,NW,323,0.0,0.0,64,0.00,,,0.00,weatherlink.com 1.10,2013-04-21 02:07:00,
2013-04-20 22:22:00,47.6,36.0,30.28,NW,323,0.0,0.0,65,0.00,,,0.00,weatherlink.com 1.10,2013-04-21 02:22:00,
2013-04-20 22:37:00,47.9,35.0,30.28,North,352,0.0,2.0,62,0.00,,,0.00,weatherlink.com 1.10,2013-04-21 02:37:00,
2013-04-20 22:52:00,47.7,35.0,30.28,North,353,0.0,0.0,61,0.00,,,0.00,weatherlink.com 1.10,2013-04-21 02:52:00,
2013-04-20 23:07:00,47.4,35.0,30.29,North,353,0.0,1.0,63,0.00,,,0.00,weatherlink.com 1.10,2013-04-21 03:07:00,
2013-04-20 23:22:00,47.0,36.0,30.29,North,354,0.0,1.0,65,0.00,,,0.00,weatherlink.com 1.10,2013-04-21 03:22:00,
2013-04-20 23:37:00,46.3,36.0,30.29,North,354,0.0,0.0,67,0.00,,,0.00,weatherlink.com 1.10,2013-04-21 03:37:00,
2013-04-20 23:52:00,45.5,35.0,30.29,North,354,0.0,1.0,68,0.00,,,0.00,weatherlink.com 1.10,2013-04-21 03:52:00,